createdAt,value
2018-03-29T00:00:59.861Z,88.80
2018-03-29T00:03:28.184Z,88.80
2018-03-29T00:05:56.322Z,88.50
2018-03-29T00:08:24.730Z,89.10
2018-03-29T00:10:53.181Z,88.90
2018-03-29T00:13:21.472Z,89.40
2018-03-29T00:15:50.530Z,90.00
2018-03-29T00:18:18.777Z,90.00
2018-03-29T00:20:46.967Z,90.20
2018-03-29T00:23:15.222Z,90.20
2018-03-29T00:25:43.354Z,90.20
2018-03-29T00:28:11.490Z,90.30
2018-03-29T00:30:39.713Z,90.30
2018-03-29T00:33:08.626Z,90.40
2018-03-29T00:35:36.791Z,90.30
2018-03-29T00:38:04.957Z,90.40
2018-03-29T00:40:34.450Z,90.40
2018-03-29T00:43:03.397Z,90.40
2018-03-29T00:45:31.578Z,90.40
2018-03-29T00:47:59.724Z,90.50
2018-03-29T00:50:27.887Z,90.80
2018-03-29T00:52:56.079Z,91.00
2018-03-29T00:55:24.270Z,91.20
2018-03-29T00:57:52.418Z,91.10
2018-03-29T01:00:20.660Z,91.00
2018-03-29T01:02:49.645Z,90.80
2018-03-29T01:05:17.803Z,90.70
2018-03-29T01:07:46.168Z,91.00
2018-03-29T01:10:14.308Z,90.70
2018-03-29T01:12:42.482Z,90.70
2018-03-29T01:15:10.668Z,90.50
2018-03-29T01:17:38.849Z,90.50
2018-03-29T01:20:07.368Z,90.50
2018-03-29T01:22:35.699Z,90.60
2018-03-29T01:25:03.840Z,90.60
2018-03-29T01:27:32.747Z,90.70
2018-03-29T01:30:01.028Z,90.70
2018-03-29T01:32:37.952Z,90.70
2018-03-29T01:35:06.309Z,90.90
2018-03-29T01:37:34.482Z,90.90
2018-03-29T01:40:02.627Z,91.10
2018-03-29T01:42:30.802Z,91.30
2018-03-29T01:44:59.128Z,91.50
2018-03-29T01:47:27.333Z,91.60
2018-03-29T01:49:56.351Z,91.60
2018-03-29T01:52:24.521Z,91.60
2018-03-29T01:54:52.730Z,91.50
2018-03-29T01:57:20.969Z,91.50
2018-03-29T01:59:49.208Z,91.40
2018-03-29T02:02:17.473Z,91.40
2018-03-29T02:04:45.691Z,91.30
2018-03-29T02:07:13.896Z,91.30
2018-03-29T02:09:42.169Z,91.20
2018-03-29T02:12:10.359Z,91.40
2018-03-29T02:14:38.628Z,91.40
2018-03-29T02:17:06.789Z,91.40
2018-03-29T02:19:34.949Z,91.40
2018-03-29T02:22:03.468Z,91.50
2018-03-29T02:24:31.637Z,91.40
2018-03-29T02:26:59.856Z,91.50
2018-03-29T02:29:29.236Z,92.10
2018-03-29T02:31:57.483Z,92.10
2018-03-29T02:34:25.683Z,92.30
2018-03-29T02:36:54.027Z,92.50
2018-03-29T02:39:22.374Z,92.50
2018-03-29T02:41:51.477Z,92.50
2018-03-29T02:44:19.892Z,92.50
2018-03-29T02:46:48.254Z,92.50
2018-03-29T02:49:16.404Z,92.60
2018-03-29T02:51:44.579Z,92.80
2018-03-29T02:54:12.742Z,93.00
2018-03-29T02:56:42.041Z,93.40
2018-03-29T02:59:10.226Z,93.40
2018-03-29T03:01:38.796Z,93.20
2018-03-29T03:04:07.014Z,93.00
2018-03-29T03:06:41.623Z,93.10
2018-03-29T03:09:11.313Z,93.10
2018-03-29T03:11:39.731Z,93.50
2018-03-29T03:14:08.371Z,93.50
2018-03-29T03:16:36.569Z,93.90
2018-03-29T03:19:04.775Z,94.10
2018-03-29T03:21:32.941Z,94.70
2018-03-29T03:24:01.582Z,95.10
2018-03-29T03:26:29.966Z,95.10
2018-03-29T03:28:58.163Z,95.00
2018-03-29T03:31:26.355Z,94.50
2018-03-29T03:33:54.484Z,94.00
2018-03-29T03:36:23.374Z,92.90
2018-03-29T03:38:51.532Z,92.90
2018-03-29T03:41:21.258Z,92.60
2018-03-29T03:43:49.821Z,92.60
2018-03-29T03:46:19.057Z,92.70
2018-03-29T03:48:47.267Z,92.40
2018-03-29T03:51:15.686Z,92.30
2018-03-29T03:57:29.447Z,92.10
2018-03-29T04:00:13.644Z,92.20
2018-03-29T04:05:41.989Z,92.40
2018-03-29T04:08:14.274Z,92.40
2018-03-29T04:10:42.461Z,92.40
2018-03-29T04:13:10.603Z,92.40
2018-03-29T04:15:40.153Z,92.50
2018-03-29T04:18:08.291Z,92.40
2018-03-29T04:20:37.261Z,92.50
2018-03-29T04:23:05.449Z,92.50
2018-03-29T04:25:34.376Z,92.70
2018-03-29T04:28:02.531Z,92.40
2018-03-29T04:30:31.457Z,92.50
2018-03-29T04:32:59.594Z,92.50
2018-03-29T04:35:28.634Z,92.40
2018-03-29T04:37:56.795Z,92.30
2018-03-29T04:40:25.064Z,92.20
2018-03-29T04:42:53.315Z,92.20
2018-03-29T04:45:22.246Z,92.40
2018-03-29T04:47:50.403Z,92.30
2018-03-29T04:50:20.000Z,92.20
2018-03-29T04:52:49.096Z,92.50
2018-03-29T04:55:18.544Z,92.40
2018-03-29T04:57:46.839Z,92.60
2018-03-29T05:00:15.010Z,92.50
2018-03-29T05:02:47.129Z,92.50
2018-03-29T05:05:15.398Z,92.50
2018-03-29T05:07:43.601Z,92.60
2018-03-29T05:10:11.922Z,92.70
2018-03-29T05:12:40.906Z,93.00
2018-03-29T05:15:09.044Z,93.00
2018-03-29T05:17:37.199Z,93.10
2018-03-29T05:20:05.919Z,93.10
2018-03-29T05:22:34.059Z,93.00
2018-03-29T05:25:02.475Z,93.00
2018-03-29T05:27:32.583Z,93.00
2018-03-29T05:30:00.888Z,92.90
2018-03-29T05:32:29.877Z,93.20
2018-03-29T05:34:58.054Z,92.90
2018-03-29T05:37:26.966Z,92.80
2018-03-29T05:39:55.325Z,92.70
2018-03-29T05:42:24.267Z,92.60
2018-03-29T05:44:52.410Z,92.60
2018-03-29T05:47:21.413Z,92.50
2018-03-29T05:49:49.984Z,92.40
2018-03-29T05:52:19.075Z,92.30
2018-03-29T05:54:47.285Z,92.30
2018-03-29T05:57:15.446Z,92.30
2018-03-29T05:59:43.906Z,92.30
2018-03-29T06:02:12.222Z,92.40
2018-03-29T06:04:40.408Z,92.40
2018-03-29T06:07:08.693Z,92.50
2018-03-29T06:09:36.862Z,92.60
2018-03-29T06:12:05.187Z,92.50
2018-03-29T06:14:39.043Z,92.50
2018-03-29T06:17:07.262Z,92.50
2018-03-29T06:19:36.179Z,92.40
2018-03-29T06:22:04.746Z,92.40
2018-03-29T06:24:32.898Z,92.60
2018-03-29T06:27:01.232Z,92.70
2018-03-29T06:29:29.612Z,92.60
2018-03-29T06:31:57.759Z,92.50
2018-03-29T06:34:25.987Z,92.40
2018-03-29T06:36:54.176Z,92.60
2018-03-29T06:39:23.126Z,92.00
2018-03-29T06:41:51.303Z,91.90
2018-03-29T06:44:19.751Z,92.00
2018-03-29T06:46:47.932Z,92.00
2018-03-29T06:49:16.177Z,91.70
2018-03-29T06:51:45.099Z,91.10
2018-03-29T06:54:13.254Z,91.00
2018-03-29T06:56:42.149Z,91.00
2018-03-29T06:59:10.417Z,91.00
2018-03-29T07:01:39.400Z,91.30
2018-03-29T07:04:07.619Z,91.30
2018-03-29T07:06:35.959Z,91.00
2018-03-29T07:09:05.705Z,90.80
2018-03-29T07:11:33.844Z,90.80
2018-03-29T07:14:02.883Z,90.20
2018-03-29T07:16:31.028Z,90.20
2018-03-29T07:18:59.194Z,90.20
2018-03-29T07:21:28.203Z,90.00
2018-03-29T07:23:56.397Z,90.00
2018-03-29T07:26:24.542Z,90.00
2018-03-29T07:28:52.708Z,89.40
2018-03-29T07:31:20.875Z,89.40
2018-03-29T07:33:49.797Z,88.10
2018-03-29T07:36:17.954Z,88.00
2018-03-29T07:38:46.409Z,87.70
2018-03-29T07:41:14.575Z,87.30
2018-03-29T07:43:43.499Z,87.10
2018-03-29T07:46:11.651Z,87.10
2018-03-29T07:48:40.458Z,87.00
2018-03-29T07:51:09.428Z,85.60
2018-03-29T07:53:37.602Z,85.60
2018-03-29T07:56:06.524Z,84.70
2018-03-29T07:58:35.371Z,85.30
2018-03-29T08:01:04.320Z,85.00
2018-03-29T08:03:32.539Z,84.90
2018-03-29T08:06:01.574Z,84.80
2018-03-29T08:08:29.739Z,84.60
2018-03-29T08:10:58.692Z,82.00
2018-03-29T08:13:27.208Z,82.00
2018-03-29T08:15:56.130Z,80.90
2018-03-29T08:18:24.266Z,80.80
2018-03-29T08:20:53.225Z,80.10
2018-03-29T08:23:21.399Z,80.00
2018-03-29T08:25:49.525Z,78.40
2018-03-29T08:28:17.686Z,77.80
2018-03-29T08:30:46.611Z,78.70
2018-03-29T08:33:14.768Z,78.70
2018-03-29T08:35:42.914Z,78.30
2018-03-29T08:38:12.110Z,79.00
2018-03-29T08:40:41.021Z,80.00
2018-03-29T08:43:09.155Z,79.20
2018-03-29T08:45:37.336Z,78.40
2018-03-29T08:48:05.514Z,78.60
2018-03-29T08:50:34.442Z,79.50
2018-03-29T08:53:02.608Z,79.50
2018-03-29T08:55:31.628Z,80.00
2018-03-29T08:57:59.966Z,78.90
2018-03-29T09:00:28.150Z,79.40
2018-03-29T09:02:56.604Z,78.30
2018-03-29T09:05:24.742Z,77.00
2018-03-29T09:07:53.086Z,76.00
2018-03-29T09:10:21.236Z,74.80
2018-03-29T09:12:49.420Z,75.40
2018-03-29T09:15:17.612Z,72.70
2018-03-29T09:17:46.858Z,74.00
2018-03-29T09:20:15.049Z,74.00
2018-03-29T09:22:43.227Z,71.90
2018-03-29T09:25:12.132Z,70.00
2018-03-29T09:27:41.123Z,69.50
2018-03-29T09:30:10.080Z,70.00
2018-03-29T09:32:38.837Z,69.90
2018-03-29T09:35:06.980Z,69.10
2018-03-29T09:37:35.370Z,68.30
2018-03-29T09:40:03.650Z,65.80
2018-03-29T09:42:32.112Z,65.20
2018-03-29T09:45:01.022Z,66.10
2018-03-29T09:47:29.173Z,66.00
2018-03-29T09:49:57.447Z,67.00
2018-03-29T09:52:25.826Z,65.80
2018-03-29T09:54:54.714Z,65.60
2018-03-29T09:57:23.722Z,64.00
2018-03-29T09:59:52.643Z,62.50
2018-03-29T10:02:20.798Z,62.50
2018-03-29T10:04:54.561Z,60.20
2018-03-29T10:07:24.497Z,59.80
2018-03-29T10:09:54.356Z,59.60
2018-03-29T10:12:22.624Z,59.60
2018-03-29T10:14:50.892Z,58.10
2018-03-29T10:17:19.033Z,59.50
2018-03-29T10:19:47.967Z,62.60
2018-03-29T10:22:16.162Z,62.40
2018-03-29T10:24:44.320Z,62.80
2018-03-29T10:27:13.340Z,64.60
2018-03-29T10:29:41.614Z,64.90
2018-03-29T10:32:10.003Z,62.70
2018-03-29T10:34:38.147Z,62.70
2018-03-29T10:37:06.641Z,62.10
2018-03-29T10:39:34.786Z,59.90
2018-03-29T10:42:03.008Z,59.60
2018-03-29T10:44:31.275Z,59.30
2018-03-29T10:46:59.554Z,58.20
2018-03-29T10:49:27.769Z,56.50
2018-03-29T10:51:55.922Z,55.30
2018-03-29T10:54:24.852Z,54.80
2018-03-29T10:56:53.295Z,54.70
2018-03-29T10:59:21.503Z,55.00
2018-03-29T11:01:49.664Z,56.00
2018-03-29T11:04:17.813Z,55.50
2018-03-29T11:06:46.735Z,53.60
2018-03-29T11:09:14.913Z,53.60
2018-03-29T11:11:43.096Z,54.40
2018-03-29T11:14:11.231Z,55.20
2018-03-29T11:16:40.275Z,54.90
2018-03-29T11:19:08.601Z,54.90
2018-03-29T11:21:37.510Z,54.20
2018-03-29T11:24:05.694Z,54.20
2018-03-29T11:26:33.837Z,55.20
2018-03-29T11:29:02.753Z,54.90
2018-03-29T11:31:30.905Z,54.90
2018-03-29T11:33:59.847Z,54.30
2018-03-29T11:36:27.987Z,54.30
2018-03-29T11:38:56.186Z,53.70
2018-03-29T11:41:24.353Z,53.60
2018-03-29T11:43:52.546Z,52.70
2018-03-29T11:46:20.740Z,52.20
2018-03-29T11:48:49.055Z,53.00
2018-03-29T11:51:18.035Z,50.80
2018-03-29T11:53:46.955Z,50.20
2018-03-29T11:56:15.582Z,50.20
2018-03-29T11:58:45.604Z,50.70
2018-03-29T12:01:15.310Z,53.30
2018-03-29T12:03:43.460Z,53.30
2018-03-29T12:06:11.610Z,53.40
2018-03-29T12:08:39.780Z,53.80
2018-03-29T12:11:07.983Z,53.70
2018-03-29T12:13:36.135Z,54.30
2018-03-29T12:16:04.289Z,56.00
2018-03-29T12:18:32.453Z,55.40
2018-03-29T12:21:00.633Z,54.90
2018-03-29T12:23:29.547Z,54.20
2018-03-29T12:25:57.677Z,54.20
2018-03-29T12:28:26.094Z,55.20
2018-03-29T12:30:54.254Z,54.30
2018-03-29T12:33:23.171Z,52.90
2018-03-29T12:35:51.395Z,52.90
2018-03-29T12:38:19.674Z,54.00
2018-03-29T12:40:47.904Z,57.80
2018-03-29T12:43:16.053Z,61.00
2018-03-29T12:45:44.228Z,63.00
2018-03-29T12:48:12.520Z,64.20
2018-03-29T12:50:40.723Z,64.50
2018-03-29T12:53:08.924Z,62.60
2018-03-29T12:55:41.881Z,61.40
2018-03-29T12:58:10.056Z,61.00
2018-03-29T13:00:38.204Z,57.60
2018-03-29T13:03:06.455Z,56.10
2018-03-29T13:05:34.821Z,58.40
2018-03-29T13:08:03.771Z,55.80
2018-03-29T13:10:31.915Z,55.70
2018-03-29T13:13:00.088Z,56.60
2018-03-29T13:15:28.288Z,57.90
2018-03-29T13:17:56.503Z,55.70
2018-03-29T13:20:25.559Z,52.70
2018-03-29T13:22:53.706Z,52.60
2018-03-29T13:25:21.979Z,49.80
2018-03-29T13:27:50.188Z,53.00
2018-03-29T13:30:18.331Z,48.40
2018-03-29T13:32:46.482Z,45.60
2018-03-29T13:35:15.512Z,44.40
2018-03-29T13:37:43.723Z,44.30
2018-03-29T13:40:11.883Z,45.50
2018-03-29T13:42:40.039Z,44.40
2018-03-29T13:45:08.210Z,43.70
2018-03-29T13:47:36.571Z,44.30
2018-03-29T13:50:04.714Z,44.60
2018-03-29T13:52:33.723Z,44.90
2018-03-29T13:55:01.886Z,44.90
2018-03-29T13:57:30.802Z,45.30
2018-03-29T13:59:59.022Z,45.20
2018-03-29T14:02:27.236Z,46.80
2018-03-29T14:04:55.977Z,46.30
2018-03-29T14:07:25.732Z,45.60
2018-03-29T14:09:53.877Z,45.50
2018-03-29T14:12:22.028Z,45.70
2018-03-29T14:14:50.211Z,45.30
2018-03-29T14:17:18.453Z,45.30
2018-03-29T14:19:46.778Z,45.80
2018-03-29T14:22:15.670Z,44.70
2018-03-29T14:24:43.863Z,42.70
2018-03-29T14:27:12.897Z,42.40
2018-03-29T14:29:41.994Z,41.20
2018-03-29T14:32:10.151Z,41.10
2018-03-29T14:34:38.319Z,41.20
2018-03-29T14:37:06.571Z,43.20
2018-03-29T14:39:34.841Z,41.50
2018-03-29T14:42:03.769Z,40.90
2018-03-29T14:44:31.944Z,40.90
2018-03-29T14:47:00.128Z,41.90
2018-03-29T14:49:28.434Z,41.00
2018-03-29T14:51:56.598Z,41.60
2018-03-29T14:54:24.747Z,40.60
2018-03-29T14:56:52.966Z,40.90
2018-03-29T14:59:22.707Z,41.30
2018-03-29T15:01:50.849Z,41.90
2018-03-29T15:04:19.361Z,42.20
2018-03-29T15:06:48.273Z,41.20
2018-03-29T15:09:16.420Z,41.20
2018-03-29T15:11:45.359Z,41.90
2018-03-29T15:14:13.787Z,41.90
2018-03-29T15:16:42.682Z,43.20
2018-03-29T15:19:11.714Z,43.90
2018-03-29T15:21:40.466Z,44.00
2018-03-29T15:24:08.625Z,44.80
2018-03-29T15:26:36.800Z,43.70
2018-03-29T15:29:05.713Z,43.90
2018-03-29T15:31:34.028Z,43.80
2018-03-29T15:34:02.150Z,42.50
2018-03-29T15:36:31.058Z,42.00
2018-03-29T15:38:59.410Z,42.00
2018-03-29T15:41:28.354Z,41.70
2018-03-29T15:43:56.643Z,41.70
2018-03-29T15:46:24.789Z,40.70
2018-03-29T15:48:53.036Z,40.60
2018-03-29T15:51:22.340Z,41.50
2018-03-29T15:53:51.391Z,41.80
2018-03-29T15:56:19.645Z,41.70
2018-03-29T15:58:47.805Z,41.30
2018-03-29T16:01:20.046Z,40.60
2018-03-29T16:03:48.960Z,40.10
2018-03-29T16:06:17.211Z,40.10
2018-03-29T16:08:46.240Z,38.80
2018-03-29T16:11:14.396Z,38.80
2018-03-29T16:13:42.534Z,39.60
2018-03-29T16:16:11.466Z,40.00
2018-03-29T16:18:39.615Z,40.40
2018-03-29T16:21:09.144Z,38.90
2018-03-29T16:23:37.322Z,38.80
2018-03-29T16:26:05.619Z,37.60
2018-03-29T16:28:33.765Z,36.50
2018-03-29T16:31:01.959Z,37.00
2018-03-29T16:33:30.158Z,37.00
2018-03-29T16:35:58.374Z,37.30
2018-03-29T16:38:27.306Z,36.30
2018-03-29T16:40:55.920Z,36.30
2018-03-29T16:43:24.327Z,35.40
2018-03-29T16:45:53.314Z,34.50
2018-03-29T16:48:22.215Z,34.60
2018-03-29T16:50:51.157Z,35.00
2018-03-29T16:53:19.381Z,35.00
2018-03-29T16:55:47.738Z,34.90
2018-03-29T16:58:15.878Z,34.90
2018-03-29T17:00:44.079Z,35.90
2018-03-29T17:03:12.481Z,37.80
2018-03-29T17:05:40.616Z,38.20
2018-03-29T17:08:08.788Z,38.30
2018-03-29T17:10:36.934Z,39.10
2018-03-29T17:13:05.068Z,41.10
2018-03-29T17:15:34.048Z,42.10
2018-03-29T17:18:02.324Z,42.00
2018-03-29T17:20:31.268Z,43.90
2018-03-29T17:22:59.451Z,43.90
2018-03-29T17:25:27.611Z,44.20
2018-03-29T17:27:55.753Z,44.80
2018-03-29T17:30:24.789Z,45.50
2018-03-29T17:32:52.950Z,45.30
2018-03-29T17:35:21.162Z,45.20
2018-03-29T17:37:49.303Z,45.60
2018-03-29T17:40:21.522Z,45.50
2018-03-29T17:42:49.682Z,46.40
2018-03-29T17:45:17.836Z,46.60
2018-03-29T17:47:46.730Z,46.70
2018-03-29T17:50:15.836Z,47.10
2018-03-29T17:52:43.971Z,46.70
2018-03-29T17:55:13.340Z,47.60
2018-03-29T17:57:43.327Z,48.20
2018-03-29T18:00:11.742Z,48.10
2018-03-29T18:02:40.674Z,48.50
2018-03-29T18:05:08.825Z,48.50
2018-03-29T18:07:36.991Z,49.40
2018-03-29T18:10:05.164Z,49.40
2018-03-29T18:12:34.740Z,50.00
2018-03-29T18:15:04.411Z,50.10
2018-03-29T18:17:32.547Z,50.00
2018-03-29T18:20:01.609Z,50.70
2018-03-29T18:22:30.706Z,50.70
2018-03-29T18:24:58.979Z,50.60
2018-03-29T18:27:27.180Z,50.70
2018-03-29T18:29:56.097Z,50.90
2018-03-29T18:32:24.314Z,50.90
2018-03-29T18:34:52.590Z,51.00
2018-03-29T18:37:20.774Z,51.30
2018-03-29T18:39:49.615Z,51.10
2018-03-29T18:42:17.825Z,51.70
2018-03-29T18:44:46.005Z,51.30
2018-03-29T18:47:14.256Z,51.60
2018-03-29T18:49:42.692Z,51.80
2018-03-29T18:52:11.789Z,51.50
2018-03-29T18:54:40.708Z,51.40
2018-03-29T18:57:08.874Z,51.40
2018-03-29T18:59:37.023Z,51.80
2018-03-29T19:02:05.140Z,52.10
2018-03-29T19:04:33.283Z,52.30
2018-03-29T19:07:01.503Z,52.30
2018-03-29T19:09:29.648Z,52.30
2018-03-29T19:11:57.922Z,52.40
2018-03-29T19:14:26.075Z,52.40
2018-03-29T19:16:55.020Z,52.90
2018-03-29T19:19:23.223Z,52.90
2018-03-29T19:21:51.579Z,52.60
2018-03-29T19:24:20.124Z,53.00
2018-03-29T19:26:48.295Z,52.90
2018-03-29T19:29:16.440Z,53.20
2018-03-29T19:31:46.158Z,54.00
2018-03-29T19:34:15.087Z,54.30
2018-03-29T19:36:43.223Z,54.30
2018-03-29T19:39:12.213Z,54.60
2018-03-29T19:41:40.444Z,54.60
2018-03-29T19:44:08.767Z,54.50
2018-03-29T19:46:37.762Z,55.00
2018-03-29T19:49:06.738Z,55.20
2018-03-29T19:51:35.718Z,55.00
2018-03-29T19:54:03.864Z,54.90
2018-03-29T19:56:32.032Z,54.80
2018-03-29T19:59:00.271Z,55.00
2018-03-29T20:01:29.258Z,55.60
2018-03-29T20:03:58.189Z,55.90
2018-03-29T20:06:26.331Z,55.80
2018-03-29T20:08:54.488Z,56.10
2018-03-29T20:11:23.446Z,56.90
2018-03-29T20:13:51.623Z,56.20
2018-03-29T20:16:19.776Z,56.30
2018-03-29T20:18:48.113Z,55.80
2018-03-29T20:21:17.037Z,55.90
2018-03-29T20:23:45.186Z,55.90
2018-03-29T20:26:14.104Z,56.10
2018-03-29T20:28:42.332Z,56.10
2018-03-29T20:31:10.557Z,56.30
2018-03-29T20:33:38.734Z,55.90
2018-03-29T20:36:06.988Z,55.80
2018-03-29T20:38:35.128Z,55.70
2018-03-29T20:41:03.328Z,55.90
2018-03-29T20:43:32.214Z,55.30
2018-03-29T20:46:01.166Z,55.60
2018-03-29T20:48:29.342Z,55.60
2018-03-29T20:50:57.468Z,55.10
2018-03-29T20:53:26.660Z,55.50
2018-03-29T20:55:54.858Z,56.80
2018-03-29T20:58:23.007Z,56.60
2018-03-29T21:00:51.141Z,57.10
2018-03-29T21:03:19.324Z,57.00
2018-03-29T21:05:47.470Z,56.70
2018-03-29T21:08:15.767Z,57.20
2018-03-29T21:10:43.935Z,57.10
2018-03-29T21:13:12.215Z,57.00
2018-03-29T21:15:41.128Z,56.70
2018-03-29T21:18:10.048Z,56.80
2018-03-29T21:20:38.306Z,56.80
2018-03-29T21:23:07.206Z,57.10
2018-03-29T21:25:35.361Z,57.10
2018-03-29T21:28:04.267Z,56.80
2018-03-29T21:30:32.413Z,56.80
2018-03-29T21:33:02.023Z,57.50
2018-03-29T21:35:30.141Z,57.70
2018-03-29T21:37:58.291Z,58.30
2018-03-29T21:40:26.561Z,59.50
2018-03-29T21:42:55.004Z,59.60
2018-03-29T21:45:23.136Z,60.10
2018-03-29T21:47:51.315Z,60.00
2018-03-29T21:50:19.471Z,60.10
2018-03-29T21:52:47.603Z,59.70
2018-03-29T21:55:15.746Z,60.10
2018-03-29T21:57:44.017Z,59.90
2018-03-29T22:00:12.162Z,59.70
2018-03-29T22:02:41.068Z,59.80
2018-03-29T22:05:10.125Z,59.90
2018-03-29T22:07:39.036Z,59.90
2018-03-29T22:10:08.224Z,60.00
2018-03-29T22:12:37.398Z,59.90
2018-03-29T22:15:05.541Z,59.80
2018-03-29T22:17:33.695Z,60.10
2018-03-29T22:20:01.837Z,60.00
2018-03-29T22:22:30.923Z,61.30
2018-03-29T22:24:59.864Z,61.80
2018-03-29T22:27:27.976Z,61.70
2018-03-29T22:29:56.101Z,62.20
2018-03-29T22:32:24.266Z,62.10
2018-03-29T22:34:52.503Z,62.30
2018-03-29T22:37:21.510Z,62.50
2018-03-29T22:39:49.681Z,62.50
2018-03-29T22:42:18.690Z,61.90
2018-03-29T22:44:47.583Z,62.10
2018-03-29T22:47:15.721Z,62.10
2018-03-29T22:49:43.876Z,61.90
2018-03-29T22:52:12.030Z,62.20
2018-03-29T22:54:41.011Z,62.70
2018-03-29T22:57:09.255Z,62.70
2018-03-29T22:59:38.177Z,63.60
2018-03-29T23:02:06.333Z,62.90
2018-03-29T23:04:35.406Z,62.80
2018-03-29T23:07:03.552Z,62.80
2018-03-29T23:09:31.725Z,62.70
2018-03-29T23:12:00.678Z,62.50
2018-03-29T23:14:29.591Z,62.50
2018-03-29T23:16:57.829Z,62.00
2018-03-29T23:19:25.955Z,62.70
2018-03-29T23:21:54.181Z,63.10
2018-03-29T23:24:23.253Z,70.00
2018-03-29T23:26:52.108Z,70.00
2018-03-29T23:29:20.262Z,72.10
2018-03-29T23:31:48.439Z,74.20
2018-03-29T23:34:16.647Z,75.60
2018-03-29T23:36:44.851Z,77.20
2018-03-29T23:39:14.092Z,79.50
2018-03-29T23:41:42.230Z,79.50
2018-03-29T23:44:11.224Z,80.90
2018-03-29T23:46:40.409Z,82.30
2018-03-29T23:49:08.691Z,81.50
2018-03-29T23:51:36.873Z,82.30
2018-03-29T23:54:05.335Z,82.50
2018-03-29T23:56:35.210Z,83.80
2018-03-29T23:59:03.371Z,83.10
